Time;durP1;ratioP1;P1;durP2;ratioP2;P2;SDS_P1;SDS_P2;PMS_P1;PMS_P2;Temp;Humidity;BMP_temperature;BMP_pressure;BME280_temperature;BME280_humidity;BME280_pressure;Samples;Min_cycle;Max_cycle;Signal;HPM_P1;HPM_P2
2024/03/28 00:01:27;;;;;;;2.40;1.40;;;7.00;96.30;;;;;;5045414;28;20056;-64
2024/03/28 00:03:52;;;;;;;1.47;1.30;;;6.70;98.00;;;;;;5054619;28;20024;-64
2024/03/28 00:06:19;;;;;;;3.03;1.43;;;6.50;99.00;;;;;;5055358;28;20025;-64
2024/03/28 00:08:44;;;;;;;4.82;1.27;;;6.50;99.00;;;;;;5045845;28;20037;-64
2024/03/28 00:11:10;;;;;;;4.37;1.83;;;6.40;99.90;;;;;;5053130;28;20036;-67
2024/03/28 00:13:35;;;;;;;2.73;1.40;;;6.50;98.60;;;;;;5053972;28;20041;-64
2024/03/28 00:16:02;;;;;;;2.87;1.73;;;6.50;99.60;;;;;;5057605;28;20025;-63
2024/03/28 00:18:29;;;;;;;2.88;1.73;;;6.60;97.30;;;;;;5051198;28;20040;-64
2024/03/28 00:20:58;;;;;;;7.82;1.88;;;6.90;96.20;;;;;;5051285;28;20147;-65
2024/03/28 00:23:25;;;;;;;1.40;1.00;;;7.20;94.80;;;;;;5052920;28;20509;-64
2024/03/28 00:25:51;;;;;;;2.28;1.10;;;7.20;94.80;;;;;;5052884;28;20120;-64
2024/03/28 00:28:17;;;;;;;;;;;7.10;94.40;;;;;;5053880;28;20047;-63
2024/03/28 00:30:42;;;;;;;4.78;1.27;;;7.00;96.10;;;;;;5057580;28;20364;-64
2024/03/28 00:33:08;;;;;;;5.17;1.20;;;7.50;92.50;;;;;;5052019;28;20080;-64
2024/03/28 00:35:33;;;;;;;3.33;1.33;;;7.40;92.50;;;;;;5053507;28;20057;-64
2024/03/28 00:37:59;;;;;;;1.80;1.20;;;7.20;93.90;;;;;;5051307;28;20028;-63
2024/03/28 00:40:25;;;;;;;2.30;1.23;;;7.10;95.60;;;;;;5053122;28;20029;-63
2024/03/28 00:42:50;;;;;;;2.27;1.27;;;7.20;93.90;;;;;;5052128;28;20021;-63
2024/03/28 00:45:16;;;;;;;1.83;1.37;;;7.40;93.10;;;;;;5053214;28;20029;-64
2024/03/28 00:47:41;;;;;;;1.57;1.00;;;7.40;92.30;;;;;;5051986;28;20025;-65
2024/03/28 00:50:07;;;;;;;1.20;0.93;;;7.60;93.00;;;;;;5051229;28;20056;-64
2024/03/28 00:52:33;;;;;;;4.28;1.08;;;7.80;92.00;;;;;;5059208;28;20598;-63
2024/03/28 00:54:59;;;;;;;1.40;1.10;;;8.10;90.40;;;;;;5052344;28;20033;-64
2024/03/28 00:57:24;;;;;;;3.50;1.00;;;8.50;84.80;;;;;;5055014;28;20043;-64
2024/03/28 00:59:53;;;;;;;3.83;0.90;;;8.40;85.70;;;;;;5056442;28;20485;-63
2024/03/28 01:02:18;;;;;;;1.77;1.17;;;8.50;84.70;;;;;;5063287;28;20055;-62
2024/03/28 01:04:44;;;;;;;1.87;1.13;;;8.50;83.80;;;;;;5057419;28;20467;-64
2024/03/28 01:07:09;;;;;;;2.97;1.30;;;8.60;81.90;;;;;;5061444;28;20029;-67
2024/03/28 01:09:35;;;;;;;2.37;1.03;;;8.50;85.10;;;;;;5056384;28;20029;-63
2024/03/28 01:12:00;;;;;;;2.43;1.00;;;8.30;88.40;;;;;;5055021;28;20048;-63
2024/03/28 01:14:26;;;;;;;1.53;0.90;;;8.70;81.60;;;;;;5051112;28;20017;-63
2024/03/28 01:16:52;;;;;;;0.90;0.77;;;8.70;80.80;;;;;;5057308;28;20035;-65
2024/03/28 01:19:17;;;;;;;1.03;0.80;;;8.80;81.60;;;;;;5056205;28;20029;-63
2024/03/28 01:21:43;;;;;;;1.67;1.10;;;8.70;81.90;;;;;;5056414;28;20396;-64
2024/03/28 01:24:08;;;;;;;5.10;0.90;;;8.60;82.30;;;;;;5058423;28;20075;-64
2024/03/28 01:26:34;;;;;;;2.83;0.83;;;8.80;82.20;;;;;;5058612;28;20032;-66
2024/03/28 01:28:59;;;;;;;0.83;0.70;;;9.20;79.60;;;;;;5057643;28;20680;-64
2024/03/28 01:31:25;;;;;;;1.57;0.60;;;9.40;77.40;;;;;;5065095;28;20048;-63
2024/03/28 01:33:50;;;;;;;0.60;0.50;;;9.80;74.20;;;;;;5055781;28;20100;-66
2024/03/28 01:36:16;;;;;;;1.07;0.70;;;9.60;76.70;;;;;;5057484;28;20420;-64
2024/03/28 01:38:42;;;;;;;0.80;0.50;;;9.40;79.10;;;;;;5057533;28;20032;-64
2024/03/28 01:41:07;;;;;;;4.00;0.67;;;9.30;80.30;;;;;;5057047;28;20032;-64
2024/03/28 01:43:33;;;;;;;2.10;0.73;;;9.20;78.70;;;;;;5055597;28;20040;-63
2024/03/28 01:46:00;;;;;;;0.70;0.60;;;9.40;78.40;;;;;;5055371;28;20035;-64
2024/03/28 01:48:26;;;;;;;2.80;0.80;;;9.50;79.00;;;;;;5056091;28;20471;-64
2024/03/28 01:50:52;;;;;;;1.00;0.70;;;9.50;77.30;;;;;;5053506;28;20039;-66
2024/03/28 01:53:17;;;;;;;1.40;0.50;;;9.70;78.90;;;;;;5057884;28;20033;-64
2024/03/28 01:55:43;;;;;;;1.60;0.75;;;9.60;77.70;;;;;;5057971;28;20531;-65
2024/03/28 01:58:10;;;;;;;1.73;0.50;;;9.70;79.50;;;;;;5054297;28;20114;-64
2024/03/28 02:00:36;;;;;;;0.82;0.60;;;9.60;79.00;;;;;;5057169;28;20721;-63
2024/03/28 02:03:02;;;;;;;1.47;0.80;;;9.40;80.70;;;;;;5048212;28;20036;-63
2024/03/28 02:05:28;;;;;;;2.28;0.57;;;9.30;81.20;;;;;;5057906;28;20094;-64
2024/03/28 02:07:53;;;;;;;1.50;1.10;;;9.60;79.70;;;;;;5057315;28;20525;-64
2024/03/28 02:10:21;;;;;;;2.13;0.67;;;9.60;80.10;;;;;;5057310;28;20032;-63
2024/03/28 02:12:47;;;;;;;7.72;1.85;;;9.30;82.40;;;;;;5051980;28;20076;-65
2024/03/28 02:15:13;;;;;;;1.23;0.70;;;9.20;81.20;;;;;;5056603;28;20029;-63
2024/03/28 02:17:49;;;;;;;1.77;0.70;;;9.40;80.20;;;;;;5056654;28;20047;-63
2024/03/28 02:20:15;;;;;;;0.75;0.70;;;9.60;79.00;;;;;;5058586;28;20554;-67
2024/03/28 02:22:41;;;;;;;4.63;0.80;;;9.80;78.70;;;;;;5056414;28;20035;-67
2024/03/28 02:25:07;;;;;;;1.53;0.87;;;9.70;81.60;;;;;;5057235;28;20128;-63
2024/03/28 02:27:37;;;;;;;3.85;0.88;;;9.80;82.40;;;;;;5057597;28;20036;-64
2024/03/28 02:30:11;;;;;;;2.97;1.00;;;9.60;83.60;;;;;;5054871;28;20492;-63
2024/03/28 02:32:38;;;;;;;2.45;0.90;;;9.50;83.50;;;;;;5052851;28;20090;-63
2024/03/28 02:35:05;;;;;;;2.55;0.88;;;9.50;83.00;;;;;;5055009;28;20091;-63
2024/03/28 02:37:31;;;;;;;2.45;0.77;;;9.30;83.20;;;;;;5055094;28;20063;-63
2024/03/28 02:39:57;;;;;;;4.40;0.88;;;9.20;86.70;;;;;;5057447;28;20029;-63
2024/03/28 02:42:23;;;;;;;4.38;0.85;;;9.00;88.50;;;;;;5057873;28;20490;-64
2024/03/28 02:44:49;;;;;;;4.23;0.93;;;9.10;88.30;;;;;;5058162;28;20027;-70
2024/03/28 02:47:15;;;;;;;2.85;0.88;;;9.00;88.80;;;;;;5055171;28;20098;-64
2024/03/28 02:49:41;;;;;;;1.87;0.90;;;9.00;90.20;;;;;;5055930;28;20036;-74
2024/03/28 02:52:06;;;;;;;1.80;1.10;;;9.20;89.70;;;;;;5059948;28;20040;-68
2024/03/28 02:54:33;;;;;;;3.07;1.00;;;9.20;87.80;;;;;;5055654;28;20441;-65
2024/03/28 02:57:03;;;;;;;1.38;0.63;;;9.30;88.20;;;;;;5055363;28;20044;-63
2024/03/28 02:59:29;;;;;;;3.35;1.02;;;9.50;87.00;;;;;;5055897;28;20081;-64
2024/03/28 03:01:55;;;;;;;1.95;0.98;;;9.40;88.00;;;;;;5054956;28;20037;-63
2024/03/28 03:04:21;;;;;;;4.10;0.80;;;9.20;89.00;;;;;;5051577;28;20105;-62
2024/03/28 03:06:47;;;;;;;1.80;0.85;;;9.20;90.10;;;;;;5055221;28;20036;-64
2024/03/28 03:09:12;;;;;;;2.27;0.87;;;9.10;89.00;;;;;;5055894;28;20535;-63
2024/03/28 03:11:38;;;;;;;4.20;1.10;;;9.40;87.10;;;;;;5056832;28;20128;-67
2024/03/28 03:14:03;;;;;;;5.13;0.93;;;9.30;90.40;;;;;;5048710;28;20025;-68
2024/03/28 03:16:29;;;;;;;2.67;0.87;;;9.20;88.40;;;;;;5055524;28;20033;-63
2024/03/28 03:18:55;;;;;;;4.67;1.00;;;9.10;88.90;;;;;;5056325;28;20377;-68
2024/03/28 03:21:21;;;;;;;2.37;0.80;;;9.20;89.20;;;;;;5057401;28;20115;-63
2024/03/28 03:23:49;;;;;;;;;;;9.20;90.00;;;;;;5058048;28;20039;-63
2024/03/28 03:26:24;;;;;;;2.38;0.90;;;9.20;90.40;;;;;;5054598;28;20358;-63
2024/03/28 03:34:36;;;;;;;2.25;1.08;;;9.30;89.60;;;;;;5054750;28;20039;-66
2024/03/28 03:37:19;;;;;;;1.65;0.90;;;9.30;90.70;;;;;;5053927;28;20543;-63
2024/03/28 03:39:46;;;;;;;2.65;0.85;;;9.40;90.10;;;;;;5059140;28;20119;-68
2024/03/28 03:42:11;;;;;;;5.10;1.10;;;9.30;90.40;;;;;;5054549;28;20082;-68
2024/03/28 03:44:37;;;;;;;6.17;1.00;;;9.30;90.80;;;;;;5055761;28;20698;-63
2024/03/28 03:47:03;;;;;;;3.47;1.10;;;9.30;91.30;;;;;;5052980;28;20054;-63
2024/03/28 03:49:29;;;;;;;3.67;1.02;;;9.40;91.20;;;;;;5053271;28;20036;-63
2024/03/28 03:51:55;;;;;;;2.00;0.90;;;9.40;91.30;;;;;;5053378;28;20133;-63
2024/03/28 03:54:20;;;;;;;1.30;1.00;;;9.50;91.60;;;;;;5052018;28;20029;-67
2024/03/28 03:56:46;;;;;;;6.17;0.90;;;9.50;91.90;;;;;;5054460;28;20029;-63
2024/03/28 03:59:11;;;;;;;3.67;1.10;;;9.50;92.00;;;;;;5055309;28;20040;-66
2024/03/28 04:01:37;;;;;;;3.77;1.10;;;9.40;92.70;;;;;;5047452;28;20032;-63
2024/03/28 04:04:03;;;;;;;8.93;1.00;;;9.40;92.90;;;;;;5047020;28;20079;-63
2024/03/28 04:06:29;;;;;;;2.70;1.05;;;9.30;93.90;;;;;;5051669;28;20170;-63
2024/03/28 04:08:55;;;;;;;4.07;1.00;;;9.30;94.40;;;;;;5052302;28;20111;-66
2024/03/28 04:11:21;;;;;;;2.90;1.10;;;9.40;94.90;;;;;;5068601;28;20078;-67
2024/03/28 04:13:47;;;;;;;5.25;1.27;;;9.30;95.40;;;;;;5052465;28;20037;-63
2024/03/28 04:16:13;;;;;;;4.43;1.00;;;9.50;97.20;;;;;;5052779;28;20086;-64
2024/03/28 04:18:38;;;;;;;5.43;1.30;;;9.40;98.30;;;;;;5055275;28;20029;-63
2024/03/28 04:21:04;;;;;;;5.20;1.30;;;9.30;99.90;;;;;;5055935;28;20033;-64
2024/03/28 04:23:29;;;;;;;2.83;1.23;;;9.20;99.90;;;;;;5053588;28;20094;-63
2024/03/28 04:25:59;;;;;;;7.30;1.47;;;9.10;99.90;;;;;;5054918;28;20553;-63
2024/03/28 04:28:25;;;;;;;6.93;1.48;;;9.10;99.90;;;;;;5046206;28;20180;-63
2024/03/28 04:30:51;;;;;;;5.50;1.47;;;9.00;99.90;;;;;;5053541;28;20032;-65
2024/03/28 04:33:17;;;;;;;3.15;1.10;;;9.00;99.90;;;;;;5058844;28;20165;-67
2024/03/28 04:35:46;;;;;;;4.75;1.35;;;9.10;99.90;;;;;;5058186;28;20081;-66
2024/03/28 04:38:12;;;;;;;10.63;1.80;;;9.20;99.90;;;;;;5057043;28;20579;-64
2024/03/28 04:40:38;;;;;;;9.10;2.30;;;9.30;99.90;;;;;;5052555;28;20037;-64
2024/03/28 04:43:03;;;;;;;15.18;2.35;;;9.30;99.90;;;;;;5056944;28;20508;-65
2024/03/28 04:45:29;;;;;;;14.50;2.60;;;9.30;99.90;;;;;;5057888;28;20748;-64
2024/03/28 04:47:55;;;;;;;12.07;2.45;;;9.30;99.90;;;;;;5058616;28;20283;-65
2024/03/28 04:50:21;;;;;;;12.48;2.08;;;9.20;99.90;;;;;;5062190;28;20119;-67
2024/03/28 04:52:47;;;;;;;11.37;3.07;;;9.40;99.90;;;;;;5057929;28;20036;-66
2024/03/28 04:55:13;;;;;;;7.40;2.17;;;9.40;99.90;;;;;;5048152;28;20075;-64
2024/03/28 04:57:39;;;;;;;12.25;2.20;;;9.60;99.90;;;;;;5057639;28;20069;-67
2024/03/28 05:00:07;;;;;;;9.98;2.15;;;9.60;99.90;;;;;;5058149;28;20078;-68
2024/03/28 05:02:34;;;;;;;8.00;2.03;;;9.70;99.90;;;;;;5053130;28;20044;-64
2024/03/28 05:04:59;;;;;;;11.98;1.80;;;9.80;99.90;;;;;;5056052;28;20029;-65
2024/03/28 05:07:25;;;;;;;8.53;1.90;;;9.80;99.90;;;;;;5056727;28;20358;-64
2024/03/28 05:09:51;;;;;;;9.10;1.65;;;9.80;99.90;;;;;;5058774;28;20488;-64
2024/03/28 05:12:17;;;;;;;12.23;1.87;;;9.90;99.90;;;;;;5054070;28;20051;-64
2024/03/28 05:14:42;;;;;;;8.87;1.70;;;9.80;99.90;;;;;;5053244;28;20476;-63
2024/03/28 05:17:08;;;;;;;11.40;1.93;;;9.70;99.90;;;;;;5055298;28;20039;-67
2024/03/28 05:19:34;;;;;;;8.67;1.63;;;9.70;99.90;;;;;;5054842;28;20036;-65
2024/03/28 05:22:00;;;;;;;9.15;1.63;;;9.70;99.90;;;;;;5056979;28;20029;-68
2024/03/28 05:24:25;;;;;;;3.93;1.00;;;9.70;99.90;;;;;;5055731;28;20552;-65
2024/03/28 05:26:51;;;;;;;2.17;0.93;;;9.60;99.90;;;;;;5056391;28;20278;-65
2024/03/28 05:29:17;;;;;;;5.27;1.10;;;9.60;99.90;;;;;;5056614;28;21759;-69
2024/03/28 05:31:42;;;;;;;2.47;0.82;;;9.50;99.90;;;;;;5062963;28;20048;-66
2024/03/28 05:34:08;;;;;;;11.43;1.17;;;9.40;99.90;;;;;;5054679;28;20037;-65
2024/03/28 05:36:37;;;;;;;5.57;1.20;;;9.40;99.90;;;;;;5055185;28;20033;-66
2024/03/28 05:39:06;;;;;;;2.45;0.63;;;9.40;99.90;;;;;;5057502;28;20791;-65
2024/03/28 05:41:32;;;;;;;7.55;1.00;;;9.30;99.90;;;;;;5057626;28;20025;-64
2024/03/28 05:43:59;;;;;;;5.70;1.35;;;9.30;99.90;;;;;;5056343;28;20040;-66
2024/03/28 05:46:24;;;;;;;9.77;1.27;;;9.30;99.90;;;;;;5056589;28;20436;-65
2024/03/28 05:48:51;;;;;;;9.57;1.20;;;9.20;99.90;;;;;;5055949;28;20036;-66
2024/03/28 05:51:17;;;;;;;5.65;0.90;;;9.20;99.90;;;;;;5055531;28;20033;-64
2024/03/28 05:53:48;;;;;;;2.43;0.93;;;9.20;99.90;;;;;;5055305;28;20040;-64
2024/03/28 05:56:20;;;;;;;8.70;1.05;;;9.10;99.90;;;;;;5054928;28;20028;-66
2024/03/28 05:58:47;;;;;;;8.27;1.02;;;9.00;99.90;;;;;;5056441;28;20037;-65
2024/03/28 06:01:13;;;;;;;2.58;1.10;;;8.90;99.90;;;;;;5057470;28;20508;-65
2024/03/28 06:03:39;;;;;;;3.83;0.65;;;8.70;99.90;;;;;;5055804;28;20182;-66
2024/03/28 06:06:05;;;;;;;1.35;0.80;;;8.70;99.90;;;;;;5053901;28;20041;-65
2024/03/28 06:08:31;;;;;;;1.15;0.88;;;8.70;99.90;;;;;;5059198;28;20028;-68
2024/03/28 06:10:57;;;;;;;1.33;0.65;;;8.60;99.90;;;;;;5054362;28;20782;-66
2024/03/28 06:13:22;;;;;;;1.37;0.70;;;8.50;99.90;;;;;;5054408;28;20051;-64
2024/03/28 06:15:49;;;;;;;0.83;0.80;;;8.60;99.90;;;;;;5054664;28;20036;-65
2024/03/28 06:18:15;;;;;;;4.57;0.70;;;8.70;99.90;;;;;;5052008;28;20264;-64
2024/03/28 06:20:41;;;;;;;2.50;0.88;;;8.60;99.90;;;;;;5056831;28;20029;-64
2024/03/28 06:23:07;;;;;;;1.77;0.63;;;8.60;99.90;;;;;;5049395;28;20041;-65
2024/03/28 06:25:39;;;;;;;1.98;0.77;;;8.60;99.90;;;;;;5056880;28;20098;-65
2024/03/28 06:28:05;;;;;;;1.63;0.70;;;8.60;99.90;;;;;;5048339;28;20545;-64
2024/03/28 06:30:31;;;;;;;;;;;8.50;99.90;;;;;;5054724;28;20056;-64
2024/03/28 06:32:57;;;;;;;3.70;0.70;;;8.50;99.90;;;;;;5055125;28;19971;-64
2024/03/28 06:35:23;;;;;;;4.18;0.70;;;8.50;99.90;;;;;;5054838;28;20040;-65
2024/03/28 06:37:49;;;;;;;3.70;0.87;;;8.40;99.90;;;;;;5054451;28;20093;-64
2024/03/28 06:40:15;;;;;;;8.43;1.50;;;8.30;99.90;;;;;;5054111;28;20029;-64
2024/03/28 06:42:41;;;;;;;1.58;0.85;;;8.30;99.90;;;;;;5055335;28;20101;-70
2024/03/28 06:45:08;;;;;;;0.60;0.50;;;8.30;99.90;;;;;;5056396;28;20029;-65
2024/03/28 06:47:33;;;;;;;;;;;8.30;99.90;;;;;;5056450;28;20049;-67
2024/03/28 06:49:59;;;;;;;1.90;0.93;;;8.20;99.90;;;;;;5052259;28;19974;-67
2024/03/28 06:52:26;;;;;;;2.63;1.27;;;8.30;99.90;;;;;;5048484;28;20032;-67
2024/03/28 06:54:51;;;;;;;5.07;2.15;;;8.50;99.90;;;;;;5053058;28;20694;-66
2024/03/28 06:57:17;;;;;;;2.53;1.30;;;8.70;99.90;;;;;;5055435;28;20060;-68
2024/03/28 06:59:43;;;;;;;1.40;0.90;;;8.80;99.90;;;;;;5065676;28;20035;-69
2024/03/28 07:02:09;;;;;;;4.50;1.10;;;8.80;99.90;;;;;;5059363;28;20093;-65
2024/03/28 07:04:34;;;;;;;6.37;1.30;;;8.80;99.90;;;;;;5052542;28;20837;-68
2024/03/28 07:07:00;;;;;;;2.87;1.23;;;8.90;99.90;;;;;;5057304;28;20131;-66
2024/03/28 07:09:25;;;;;;;3.43;1.57;;;9.00;99.90;;;;;;5045860;28;20878;-65
2024/03/28 07:11:51;;;;;;;3.97;1.30;;;9.10;99.90;;;;;;5055135;28;20120;-67
2024/03/28 07:14:18;;;;;;;6.37;1.60;;;9.10;99.90;;;;;;5055305;28;20447;-66
2024/03/28 07:16:44;;;;;;;3.28;1.30;;;9.10;99.90;;;;;;5051444;28;20040;-66
2024/03/28 07:19:10;;;;;;;2.17;1.25;;;8.90;99.90;;;;;;5053770;28;20036;-65
2024/03/28 07:21:39;;;;;;;2.35;1.40;;;8.90;99.90;;;;;;5049154;28;20086;-66
2024/03/28 07:24:05;;;;;;;3.42;1.08;;;9.00;99.90;;;;;;5055294;28;20033;-66
2024/03/28 07:26:31;;;;;;;3.90;1.27;;;9.00;99.90;;;;;;5054946;28;20060;-65
2024/03/28 07:28:57;;;;;;;2.58;1.23;;;9.10;99.90;;;;;;5052027;28;20029;-68
2024/03/28 07:31:23;;;;;;;2.30;1.23;;;9.20;99.90;;;;;;5051068;28;20040;-70
2024/03/28 07:33:49;;;;;;;4.07;1.38;;;9.20;99.90;;;;;;5055619;28;20040;-67
2024/03/28 07:36:15;;;;;;;3.65;1.42;;;9.30;99.90;;;;;;5055672;28;20471;-66
2024/03/28 07:38:41;;;;;;;2.47;1.17;;;9.50;99.90;;;;;;5049524;28;20033;-72
2024/03/28 07:41:07;;;;;;;1.75;1.05;;;9.50;99.90;;;;;;5052754;28;20028;-70
2024/03/28 07:43:33;;;;;;;2.17;0.70;;;9.70;99.90;;;;;;5050431;28;20045;-66
2024/03/28 07:46:03;;;;;;;1.13;0.80;;;9.80;99.90;;;;;;5046924;28;21125;-65
2024/03/28 07:48:29;;;;;;;1.40;0.90;;;9.80;99.90;;;;;;5053326;28;20037;-65
2024/03/28 07:50:58;;;;;;;1.00;0.60;;;10.00;99.90;;;;;;5052149;28;20021;-66
2024/03/28 07:53:24;;;;;;;4.82;0.98;;;10.10;99.90;;;;;;5053641;28;20093;-68
2024/03/28 07:55:50;;;;;;;1.83;0.80;;;10.20;99.90;;;;;;5056041;28;20017;-66
2024/03/28 07:58:15;;;;;;;1.33;0.80;;;10.20;99.90;;;;;;5055458;28;20128;-69
2024/03/28 08:00:41;;;;;;;6.50;0.97;;;10.20;99.90;;;;;;5054909;28;20028;-67
2024/03/28 08:03:07;;;;;;;3.83;0.60;;;10.20;99.70;;;;;;5043946;28;20041;-70
2024/03/28 08:05:34;;;;;;;1.15;0.60;;;10.40;93.90;;;;;;5050866;28;20095;-68
2024/03/28 08:08:00;;;;;;;1.92;0.85;;;10.50;94.00;;;;;;5053907;28;20143;-67
2024/03/28 08:10:30;;;;;;;0.87;0.53;;;10.60;95.10;;;;;;5057206;28;20120;-70
2024/03/28 08:12:57;;;;;;;1.92;0.73;;;10.60;96.40;;;;;;5061679;28;20840;-67
2024/03/28 08:15:25;;;;;;;6.47;1.65;;;10.60;95.90;;;;;;5061150;28;20029;-67
2024/03/28 08:17:51;;;;;;;0.93;0.65;;;10.70;96.20;;;;;;5054319;28;20033;-70
2024/03/28 08:20:17;;;;;;;;;;;10.80;94.20;;;;;;5058175;28;20032;-69
2024/03/28 08:22:43;;;;;;;1.92;0.65;;;10.90;94.70;;;;;;5061884;28;20596;-70
2024/03/28 08:25:09;;;;;;;3.00;0.53;;;10.90;92.00;;;;;;5059311;28;20035;-71
2024/03/28 08:27:35;;;;;;;1.45;0.73;;;10.90;91.70;;;;;;5060245;28;20043;-68
2024/03/28 08:30:02;;;;;;;2.40;0.70;;;11.00;91.00;;;;;;5055951;28;20021;-68
2024/03/28 08:32:28;;;;;;;1.95;0.95;;;11.10;91.70;;;;;;5066589;28;20065;-69
2024/03/28 08:34:53;;;;;;;1.25;0.60;;;11.10;91.70;;;;;;5065576;28;20036;-68
2024/03/28 08:37:20;;;;;;;0.50;0.50;;;11.20;91.00;;;;;;5063544;28;20020;-69
2024/03/28 08:39:46;;;;;;;;;;;11.30;89.60;;;;;;5058875;28;20507;-68
2024/03/28 08:42:11;;;;;;;1.42;0.50;;;11.40;87.10;;;;;;5065258;28;19912;-69
2024/03/28 08:44:37;;;;;;;2.30;0.70;;;11.40;85.10;;;;;;5061852;28;20102;-67
2024/03/28 08:47:03;;;;;;;1.27;0.50;;;11.50;82.40;;;;;;5061162;28;20025;-68
2024/03/28 08:49:29;;;;;;;1.55;0.57;;;11.70;87.00;;;;;;5062715;28;20166;-66
2024/03/28 08:51:56;;;;;;;2.72;0.50;;;11.70;82.40;;;;;;5053717;28;20045;-68
2024/03/28 08:54:24;;;;;;;1.27;0.57;;;11.80;80.60;;;;;;5062199;28;20033;-68
2024/03/28 08:56:49;;;;;;;3.30;0.43;;;11.80;77.60;;;;;;5059789;28;20314;-69
2024/03/28 08:59:15;;;;;;;1.63;0.63;;;11.80;78.20;;;;;;5062260;28;20040;-68
2024/03/28 09:01:41;;;;;;;2.00;0.47;;;12.00;79.40;;;;;;5053836;28;20655;-72
2024/03/28 09:04:07;;;;;;;1.00;0.40;;;11.90;72.90;;;;;;5061219;28;20508;-68
2024/03/28 09:06:33;;;;;;;1.48;0.98;;;12.10;73.50;;;;;;5061481;28;20067;-68
2024/03/28 09:09:00;;;;;;;2.33;0.80;;;12.20;73.30;;;;;;5062051;28;20032;-72
2024/03/28 09:11:28;;;;;;;0.90;0.40;;;12.50;72.10;;;;;;5061898;28;20050;-71
2024/03/28 09:13:54;;;;;;;1.55;0.45;;;12.70;70.90;;;;;;5062713;28;20040;-72
2024/03/28 09:16:19;;;;;;;3.80;0.70;;;12.50;69.90;;;;;;5058792;28;20040;-72
2024/03/28 09:18:45;;;;;;;1.43;0.40;;;12.70;72.20;;;;;;5055603;28;20047;-68
2024/03/28 09:21:11;;;;;;;0.95;0.50;;;12.70;71.30;;;;;;5058780;28;20485;-68
2024/03/28 09:23:38;;;;;;;3.97;1.67;;;12.90;71.70;;;;;;5060090;28;20040;-69
2024/03/28 09:26:03;;;;;;;1.75;0.70;;;12.90;71.70;;;;;;5055364;28;20024;-67
2024/03/28 09:28:30;;;;;;;0.70;0.70;;;12.70;71.90;;;;;;5054723;28;20029;-70
2024/03/28 09:30:56;;;;;;;0.77;0.63;;;12.60;69.30;;;;;;5058094;28;20068;-68
2024/03/28 09:33:21;;;;;;;2.63;0.63;;;12.70;68.90;;;;;;5048337;28;20067;-68
2024/03/28 09:35:47;;;;;;;2.27;0.47;;;12.70;69.70;;;;;;5058217;28;20021;-67
2024/03/28 09:38:12;;;;;;;2.00;0.70;;;12.90;69.70;;;;;;5058156;28;20033;-68
2024/03/28 09:40:52;;;;;;;2.83;0.53;;;13.00;70.00;;;;;;5058927;28;20115;-70
2024/03/28 09:43:18;;;;;;;1.35;0.50;;;12.90;68.50;;;;;;5059435;28;20040;-68
2024/03/28 09:45:44;;;;;;;1.08;0.82;;;12.90;69.20;;;;;;5058928;28;20539;-67
2024/03/28 09:48:15;;;;;;;2.92;0.50;;;12.80;67.70;;;;;;5056804;28;20037;-69
2024/03/28 09:50:42;;;;;;;2.80;0.70;;;12.90;68.30;;;;;;5056835;28;20032;-68
2024/03/28 09:53:09;;;;;;;2.97;0.60;;;12.90;69.40;;;;;;5056572;28;20538;-70
2024/03/28 09:55:37;;;;;;;0.70;0.40;;;12.80;70.00;;;;;;5058070;28;20039;-68
2024/03/28 09:58:03;;;;;;;1.73;0.80;;;13.00;70.50;;;;;;5057631;28;20070;-68
2024/03/28 10:00:30;;;;;;;1.27;0.60;;;13.20;70.50;;;;;;5056554;28;20086;-67
2024/03/28 10:03:24;;;;;;;1.42;0.60;;;13.30;69.80;;;;;;5056385;28;20044;-67
2024/03/28 10:05:50;;;;;;;4.30;0.80;;;13.10;67.90;;;;;;5054504;28;20516;-69
2024/03/28 10:08:15;;;;;;;3.43;1.80;;;13.20;71.40;;;;;;5049967;28;20037;-68
2024/03/28 10:10:42;;;;;;;1.20;0.50;;;13.10;68.00;;;;;;5050244;28;20052;-68
2024/03/28 10:13:10;;;;;;;1.02;0.40;;;12.90;69.10;;;;;;5052893;28;20583;-67
2024/03/28 10:15:36;;;;;;;0.77;0.40;;;13.00;68.00;;;;;;5057007;28;20040;-67
2024/03/28 10:18:05;;;;;;;2.17;0.70;;;13.00;66.80;;;;;;5051411;28;20040;-68
2024/03/28 10:20:31;;;;;;;1.77;0.50;;;13.00;65.60;;;;;;5054935;28;20043;-68
2024/03/28 10:22:57;;;;;;;5.43;1.58;;;13.20;66.40;;;;;;5060465;28;20129;-66
2024/03/28 10:25:25;;;;;;;1.88;0.60;;;13.20;66.60;;;;;;5056346;28;20484;-67
2024/03/28 10:27:51;;;;;;;4.72;0.73;;;13.30;65.90;;;;;;5056756;28;20060;-68
2024/03/28 10:30:21;;;;;;;2.20;1.00;;;13.40;64.90;;;;;;5055990;28;20104;-67
2024/03/28 10:32:57;;;;;;;1.55;0.60;;;13.70;66.10;;;;;;5066708;28;20126;-68
2024/03/28 10:35:23;;;;;;;5.13;1.40;;;13.90;61.80;;;;;;5059574;28;20025;-68
2024/03/28 10:37:59;;;;;;;9.93;0.83;;;14.20;65.90;;;;;;5062792;28;20429;-66
2024/03/28 10:40:27;;;;;;;1.17;0.57;;;14.10;63.80;;;;;;5057165;28;20033;-67
2024/03/28 10:42:57;;;;;;;1.25;0.40;;;14.20;62.80;;;;;;5056088;28;20048;-68
2024/03/28 10:45:24;;;;;;;4.05;0.60;;;14.40;63.10;;;;;;5058959;28;20056;-68
2024/03/28 10:47:51;;;;;;;;;;;14.80;61.60;;;;;;5057850;28;20569;-72
2024/03/28 10:50:27;;;;;;;1.33;0.95;;;14.80;61.80;;;;;;5075770;28;19918;-73
2024/03/28 10:52:55;;;;;;;1.33;0.70;;;15.00;62.10;;;;;;5059822;28;20045;-67
2024/03/28 10:55:32;;;;;;;1.70;0.57;;;15.10;62.30;;;;;;5057452;28;20020;-69
2024/03/28 10:57:59;;;;;;;3.95;1.10;;;15.60;62.20;;;;;;5061455;28;20024;-67
2024/03/28 11:00:25;;;;;;;3.05;0.75;;;15.60;60.40;;;;;;5055908;28;20028;-70
2024/03/28 11:02:51;;;;;;;1.67;0.60;;;16.20;60.50;;;;;;5055290;28;20511;-67
2024/03/28 11:05:19;;;;;;;1.20;0.67;;;16.70;57.50;;;;;;5055704;28;20123;-74
2024/03/28 11:07:46;;;;;;;2.70;0.93;;;17.70;58.10;;;;;;5055749;28;20283;-68
2024/03/28 11:10:11;;;;;;;9.95;1.30;;;17.70;59.00;;;;;;5056306;28;20435;-68
2024/03/28 11:12:38;;;;;;;3.80;0.67;;;16.50;60.10;;;;;;5055288;28;20777;-68
2024/03/28 11:15:04;;;;;;;3.53;1.10;;;15.20;61.50;;;;;;5057519;28;20086;-69
2024/03/28 11:17:30;;;;;;;;;;;14.50;62.30;;;;;;5060632;28;20122;-69
2024/03/28 11:20:08;;;;;;;2.38;0.70;;;14.50;62.80;;;;;;5054926;28;19913;-68
2024/03/28 11:22:34;;;;;;;2.67;0.93;;;14.50;63.30;;;;;;5054141;28;20104;-69
2024/03/28 11:25:00;;;;;;;1.42;0.60;;;14.70;62.90;;;;;;5055993;28;20113;-66
2024/03/28 11:27:25;;;;;;;3.77;1.20;;;15.00;62.00;;;;;;5056204;28;20036;-67
2024/03/28 11:30:04;;;;;;;1.60;0.80;;;14.80;61.30;;;;;;5051529;28;20021;-67
2024/03/28 11:32:29;;;;;;;5.90;1.70;;;14.90;62.60;;;;;;5059808;28;20114;-67
2024/03/28 11:35:10;;;;;;;6.07;2.37;;;15.30;60.50;;;;;;5052686;28;20032;-67
2024/03/28 11:37:36;;;;;;;1.52;1.00;;;15.80;63.10;;;;;;5060640;28;20032;-66
2024/03/28 11:40:03;;;;;;;9.27;3.03;;;15.90;61.90;;;;;;5055530;28;20024;-65
2024/03/28 11:42:29;;;;;;;5.40;2.17;;;15.40;59.60;;;;;;5054630;28;20041;-66
2024/03/28 11:45:05;;;;;;;6.03;2.03;;;15.00;61.10;;;;;;5055367;28;20025;-65
2024/03/28 11:47:31;;;;;;;2.92;1.10;;;14.90;59.80;;;;;;5055399;28;20036;-68
2024/03/28 11:50:06;;;;;;;5.17;1.00;;;15.20;60.90;;;;;;5056104;28;20036;-75
2024/03/28 11:52:36;;;;;;;5.05;1.20;;;15.90;60.60;;;;;;5056014;28;20041;-72
2024/03/28 11:55:03;;;;;;;4.32;1.40;;;16.30;60.00;;;;;;5055607;28;20029;-71
2024/03/28 11:57:28;;;;;;;2.80;1.35;;;16.60;60.20;;;;;;5047318;28;20489;-72
2024/03/28 12:00:04;;;;;;;1.70;0.80;;;16.40;61.00;;;;;;5052770;28;20079;-68
2024/03/28 12:02:30;;;;;;;3.05;1.00;;;16.60;59.40;;;;;;5049949;28;20044;-66
2024/03/28 12:05:04;;;;;;;5.27;1.00;;;16.70;60.10;;;;;;5052874;28;20043;-66
2024/03/28 12:07:30;;;;;;;3.92;0.90;;;16.40;56.30;;;;;;5054436;28;20498;-74
2024/03/28 12:09:56;;;;;;;2.67;1.13;;;16.10;58.50;;;;;;5054810;28;20068;-68
2024/03/28 12:12:21;;;;;;;4.00;0.80;;;16.10;58.10;;;;;;5054488;28;20060;-71
2024/03/28 12:14:47;;;;;;;3.27;1.00;;;16.30;57.30;;;;;;5054114;28;20025;-68
2024/03/28 12:17:13;;;;;;;3.10;0.85;;;16.60;60.50;;;;;;5054713;28;20025;-73
2024/03/28 12:19:39;;;;;;;2.30;1.10;;;16.70;59.10;;;;;;5063956;28;20029;-71
2024/03/28 12:22:05;;;;;;;1.10;0.70;;;16.40;59.40;;;;;;5055994;28;20025;-72
2024/03/28 12:24:30;;;;;;;1.80;0.90;;;16.80;55.30;;;;;;5057467;28;20101;-69
2024/03/28 12:26:57;;;;;;;2.77;1.23;;;16.80;56.90;;;;;;5056168;28;20020;-66
2024/03/28 12:29:25;;;;;;;4.30;1.05;;;16.90;55.80;;;;;;5060188;28;20031;-67
2024/03/28 12:32:02;;;;;;;2.15;0.93;;;16.80;55.70;;;;;;5060797;28;20465;-67
2024/03/28 12:34:28;;;;;;;2.95;0.88;;;16.90;55.40;;;;;;5053608;28;20040;-66
2024/03/28 12:36:53;;;;;;;3.77;0.77;;;16.90;55.90;;;;;;5055500;28;20116;-67
2024/03/28 12:39:22;;;;;;;1.73;0.50;;;16.40;53.80;;;;;;5051601;28;20362;-65
2024/03/28 12:41:55;;;;;;;1.55;0.75;;;16.00;52.80;;;;;;5051447;28;20028;-66
2024/03/28 12:44:21;;;;;;;7.00;0.82;;;16.10;52.00;;;;;;5056593;28;20626;-65
2024/03/28 12:46:46;;;;;;;3.63;0.77;;;16.30;55.50;;;;;;5057743;28;20105;-68
2024/03/28 12:49:12;;;;;;;1.00;0.60;;;16.30;53.10;;;;;;5054404;28;20071;-65
2024/03/28 12:51:37;;;;;;;2.17;0.87;;;16.20;54.10;;;;;;5056416;28;20047;-65
2024/03/28 12:54:03;;;;;;;1.87;0.63;;;16.40;53.00;;;;;;5059424;28;20029;-66
2024/03/28 12:56:28;;;;;;;3.40;0.80;;;16.40;55.30;;;;;;5057436;28;20025;-65
2024/03/28 12:58:54;;;;;;;3.17;0.73;;;16.50;54.00;;;;;;5059081;28;20033;-72